Time;durP1;ratioP1;P1;durP2;ratioP2;P2;SDS_P1;SDS_P2;PMS_P1;PMS_P2;Temp;Humidity;BMP_temperature;BMP_pressure;BME280_temperature;BME280_humidity;BME280_pressure;Samples;Min_cycle;Max_cycle;Signal;HPM_P1;HPM_P2
2022/03/15 00:02:15;;;;;;;20.80;15.43;;;;;;;6.61;76.15;102732.44;5054009;28;20427;-80
2022/03/15 00:04:40;;;;;;;25.90;16.35;;;;;;;6.58;76.52;102736.03;5045007;28;20029;-79
2022/03/15 00:07:16;;;;;;;26.48;16.58;;;;;;;6.50;76.54;102731.91;5052141;28;20475;-79
2022/03/15 00:09:44;;;;;;;27.77;16.20;;;;;;;6.50;76.88;102724.00;5046956;28;20525;-81
2022/03/15 00:12:10;;;;;;;25.95;15.82;;;;;;;6.49;77.04;102720.47;5055428;28;20044;-80
2022/03/15 00:14:37;;;;;;;22.63;16.02;;;;;;;6.44;77.02;102720.59;5049079;28;20037;-80
2022/03/15 00:17:05;;;;;;;28.45;17.20;;;;;;;6.46;77.10;102720.53;5051290;28;20021;-81
2022/03/15 00:19:33;;;;;;;25.17;15.77;;;;;;;6.41;77.28;102712.78;5047284;28;20029;-80
2022/03/15 00:21:59;;;;;;;27.87;17.47;;;;;;;6.43;77.34;102712.75;5055144;28;20064;-80
2022/03/15 00:24:25;;;;;;;30.35;17.63;;;;;;;6.39;77.77;102703.16;5055323;28;20075;-80
2022/03/15 00:26:51;;;;;;;27.40;16.40;;;;;;;6.39;77.29;102711.09;5048595;28;20391;-80
2022/03/15 00:29:17;;;;;;;26.40;15.77;;;;;;;6.35;77.27;102699.75;5052890;28;20040;-79
2022/03/15 00:31:44;;;;;;;24.55;15.70;;;;;;;6.37;77.32;102710.28;5055456;28;20067;-80
2022/03/15 00:34:10;;;;;;;26.95;15.80;;;;;;;6.37;77.24;102710.28;5055208;28;20020;-80
2022/03/15 00:36:35;;;;;;;26.40;15.98;;;;;;;6.37;77.33;102721.69;5055102;28;20083;-80
2022/03/15 00:39:01;;;;;;;22.17;15.30;;;;;;;6.37;77.69;102721.69;5042160;28;20390;-80
2022/03/15 00:41:26;;;;;;;30.30;15.73;;;;;;;6.37;77.80;102719.03;5054833;28;20447;-80
2022/03/15 00:43:52;;;;;;;23.27;15.30;;;;;;;6.37;77.47;102720.84;5054778;28;20048;-80
2022/03/15 00:46:17;;;;;;;25.40;16.13;;;;;;;6.34;77.98;102713.84;5054756;28;20071;-80
2022/03/15 00:48:42;;;;;;;27.85;16.08;;;;;;;6.35;76.98;102717.38;5046768;28;20029;-80
2022/03/15 00:51:07;;;;;;;24.42;14.38;;;;;;;6.34;77.32;102710.34;5054759;28;20395;-80
2022/03/15 00:53:32;;;;;;;29.90;15.05;;;;;;;6.34;77.28;102710.34;5054501;28;20067;-80
2022/03/15 00:55:58;;;;;;;26.55;15.52;;;;;;;6.33;77.53;102701.59;5044945;28;20037;-80
2022/03/15 00:58:23;;;;;;;25.92;15.45;;;;;;;6.33;77.61;102708.63;5068746;28;20032;-80
2022/03/15 01:00:48;;;;;;;22.00;14.85;;;;;;;6.30;77.92;102694.59;5054709;28;20082;-80
2022/03/15 01:03:14;;;;;;;28.33;15.18;;;;;;;6.29;77.61;102692.00;5044304;28;20029;-80
2022/03/15 01:05:40;;;;;;;22.52;14.82;;;;;;;6.29;77.34;102702.56;5054866;28;20048;-80
2022/03/15 01:08:05;;;;;;;28.88;16.05;;;;;;;6.29;77.65;102697.28;5054233;28;20427;-80
2022/03/15 01:10:31;;;;;;;24.20;15.43;;;;;;;6.29;77.79;102706.09;5052318;28;20024;-79
2022/03/15 01:12:56;;;;;;;27.60;16.02;;;;;;;6.27;77.72;102701.75;5053867;28;20124;-80
2022/03/15 01:15:25;;;;;;;26.92;15.50;;;;;;;6.27;77.79;102705.25;5068259;28;20028;-80
2022/03/15 01:17:50;;;;;;;24.63;15.60;;;;;;;6.29;77.72;102710.47;5050317;28;20427;-80
2022/03/15 01:20:16;;;;;;;29.48;16.95;;;;;;;6.26;77.93;102716.72;5067955;28;20058;-81
2022/03/15 01:22:41;;;;;;;22.23;16.20;;;;;;;6.26;78.12;102706.19;5054006;28;20033;-80
2022/03/15 01:25:07;;;;;;;27.50;16.92;;;;;;;6.25;77.75;102700.94;5043955;28;20366;-80
2022/03/15 01:27:34;;;;;;;25.52;15.13;;;;;;;6.22;77.53;102693.09;5055994;28;20547;-80
2022/03/15 01:29:59;;;;;;;27.40;15.95;;;;;;;6.24;76.96;102688.63;5056699;28;20056;-79
2022/03/15 01:32:25;;;;;;;26.13;15.40;;;;;;;6.23;76.88;102682.50;5064270;28;20056;-80
2022/03/15 01:34:50;;;;;;;27.30;15.68;;;;;;;6.23;77.13;102677.22;5053801;28;20075;-80
2022/03/15 01:37:15;;;;;;;30.70;15.05;;;;;;;6.22;77.33;102678.13;5067609;28;20455;-81
2022/03/15 01:39:41;;;;;;;22.60;14.15;;;;;;;6.26;76.78;102671.88;5047517;28;20041;-80
2022/03/15 01:42:06;;;;;;;25.48;14.13;;;;;;;6.24;76.64;102678.94;5053625;28;20028;-80
2022/03/15 01:44:33;;;;;;;29.30;14.80;;;;;;;6.23;76.44;102666.69;5053702;28;20040;-80
2022/03/15 01:46:59;;;;;;;24.73;14.27;;;;;;;6.22;76.20;102666.72;5040483;28;20021;-81
2022/03/15 01:49:25;;;;;;;25.73;13.45;;;;;;;6.22;76.56;102672.00;5050768;28;20029;-80
2022/03/15 01:51:51;;;;;;;27.58;13.68;;;;;;;6.23;76.53;102661.41;5054786;28;20029;-80
2022/03/15 01:54:17;;;;;;;23.88;13.00;;;;;;;6.24;76.28;102664.91;5055254;28;20100;-80
2022/03/15 01:56:43;;;;;;;27.40;14.00;;;;;;;6.24;76.56;102662.25;5054070;28;20108;-80
2022/03/15 01:59:10;;;;;;;25.13;14.30;;;;;;;6.21;77.32;102663.22;5043516;28;20028;-80
2022/03/15 02:01:37;;;;;;;24.70;13.52;;;;;;;6.23;76.71;102665.81;5053585;28;20109;-80
2022/03/15 02:04:02;;;;;;;22.70;13.95;;;;;;;6.18;76.72;102654.50;5043134;28;20040;-79
2022/03/15 02:06:27;;;;;;;22.20;13.43;;;;;;;6.24;76.75;102664.91;5053437;28;20384;-80
2022/03/15 02:08:53;;;;;;;22.75;14.63;;;;;;;6.22;77.63;102664.09;5052516;28;20399;-81
2022/03/15 02:11:18;;;;;;;24.52;14.40;;;;;;;6.21;77.03;102657.94;5052999;28;20043;-80
2022/03/15 02:13:44;;;;;;;24.40;14.18;;;;;;;6.19;77.17;102659.75;5048512;28;20029;-80
2022/03/15 02:16:10;;;;;;;24.67;14.02;;;;;;;6.20;77.21;102658.00;5054471;28;20021;-80
2022/03/15 02:18:35;;;;;;;26.35;15.40;;;;;;;6.15;77.13;102652.00;5054030;28;20051;-80
2022/03/15 02:21:00;;;;;;;20.77;13.65;;;;;;;6.20;77.17;102647.44;5052990;28;20057;-80
2022/03/15 02:23:26;;;;;;;22.08;13.20;;;;;;;6.18;76.78;102642.19;5048603;28;20102;-80
2022/03/15 02:25:51;;;;;;;18.98;13.32;;;;;;;6.19;76.72;102641.28;5052272;28;20511;-79
2022/03/15 02:28:17;;;;;;;22.35;13.30;;;;;;;6.18;76.81;102641.31;5053224;28;20041;-80
2022/03/15 02:30:42;;;;;;;20.05;13.55;;;;;;;6.17;76.62;102636.97;5048476;28;20032;-80
2022/03/15 02:33:07;;;;;;;20.80;12.80;;;;;;;6.15;76.71;102628.25;5053069;28;20058;-79
2022/03/15 02:35:33;;;;;;;19.67;12.75;;;;;;;6.16;77.11;102625.56;5050954;28;20025;-80
2022/03/15 02:37:58;;;;;;;18.08;13.00;;;;;;;6.17;76.95;102631.69;5053058;28;20033;-80
2022/03/15 02:40:23;;;;;;;20.50;12.68;;;;;;;6.16;76.21;102635.22;5052768;28;20032;-78
2022/03/15 02:42:48;;;;;;;21.98;12.55;;;;;;;6.15;76.24;102638.78;5052825;28;20028;-78
2022/03/15 02:45:15;;;;;;;20.27;12.50;;;;;;;6.16;76.57;102629.94;5045231;28;20082;-78
2022/03/15 02:47:42;;;;;;;21.55;12.80;;;;;;;6.14;77.21;102631.78;5051818;28;20031;-79
2022/03/15 02:50:08;;;;;;;21.20;13.52;;;;;;;6.13;76.96;102628.28;5049239;28;20523;-78
2022/03/15 02:52:34;;;;;;;21.88;12.60;;;;;;;6.11;76.63;102630.97;5050646;28;20017;-79
2022/03/15 02:54:59;;;;;;;19.35;12.15;;;;;;;6.10;76.74;102618.66;5050647;28;20074;-80
2022/03/15 02:57:25;;;;;;;19.95;12.13;;;;;;;6.09;76.75;102611.66;5043823;28;20033;-80
2022/03/15 02:59:51;;;;;;;25.08;13.02;;;;;;;6.09;76.28;102608.16;5051006;28;20032;-80
2022/03/15 03:02:17;;;;;;;18.35;12.13;;;;;;;6.11;76.30;102612.50;5038680;28;20029;-79
2022/03/15 03:04:43;;;;;;;21.00;12.75;;;;;;;6.13;76.16;102601.00;5050680;28;20025;-80
2022/03/15 03:07:09;;;;;;;22.00;12.65;;;;;;;6.10;76.42;102587.00;5050955;28;20483;-79
2022/03/15 03:09:34;;;;;;;21.95;12.45;;;;;;;6.09;76.28;102585.28;5048347;28;20025;-80
2022/03/15 03:11:59;;;;;;;19.95;12.32;;;;;;;6.10;75.70;102580.88;5047825;28;20654;-80
2022/03/15 03:14:25;;;;;;;20.05;12.25;;;;;;;6.13;76.35;102586.06;5050766;28;20044;-79
2022/03/15 03:16:51;;;;;;;26.33;11.65;;;;;;;6.14;76.46;102586.94;5050705;28;20396;-80
2022/03/15 03:19:16;;;;;;;20.05;12.18;;;;;;;6.11;76.06;102578.19;5047429;28;20029;-80
2022/03/15 03:21:42;;;;;;;17.73;11.18;;;;;;;6.09;76.27;102572.09;5043620;28;20365;-79
2022/03/15 03:24:09;;;;;;;17.40;11.15;;;;;;;6.13;75.79;102582.56;5050753;28;20112;-79
2022/03/15 03:26:37;;;;;;;24.23;11.75;;;;;;;6.12;75.91;102581.69;5071759;22;20053;-64
2022/03/15 03:29:09;;;;;;;21.63;11.80;;;;;;;6.11;75.89;102578.19;5011425;28;20033;-64
2022/03/15 03:31:39;;;;;;;17.60;11.75;;;;;;;6.11;75.62;102582.59;5011436;28;20420;-64
2022/03/15 03:34:05;;;;;;;21.58;11.52;;;;;;;6.12;75.94;102579.06;5010405;28;20138;-64
2022/03/15 03:36:34;;;;;;;17.48;11.52;;;;;;;6.12;76.47;102576.41;5012741;28;20026;-64
2022/03/15 03:38:59;;;;;;;19.77;12.18;;;;;;;6.12;76.19;102573.78;5015015;28;20040;-64
2022/03/15 03:41:25;;;;;;;16.65;11.07;;;;;;;6.13;75.98;102575.53;5014178;28;20451;-64
2022/03/15 03:43:51;;;;;;;21.52;12.45;;;;;;;6.13;75.86;102574.63;5030150;28;20034;-64
2022/03/15 03:46:17;;;;;;;20.42;11.50;;;;;;;6.14;75.99;102579.00;5000392;28;20491;-64
2022/03/15 03:48:43;;;;;;;20.08;12.00;;;;;;;6.14;75.67;102576.38;5015388;28;20218;-64
2022/03/15 03:51:08;;;;;;;20.20;11.15;;;;;;;6.13;75.93;102572.88;5014851;28;20516;-64
2022/03/15 03:53:34;;;;;;;19.65;11.48;;;;;;;6.13;75.55;102572.00;5015062;28;20117;-64
2022/03/15 03:55:59;;;;;;;24.48;12.15;;;;;;;6.12;75.72;102568.50;5014251;28;20022;-64
2022/03/15 03:58:24;;;;;;;22.33;12.98;;;;;;;6.12;75.72;102571.13;5014919;28;20025;-64
2022/03/15 04:00:49;;;;;;;20.40;12.35;;;;;;;6.13;75.85;102566.72;5014608;28;20048;-64
2022/03/15 04:03:17;;;;;;;22.98;12.48;;;;;;;6.14;75.24;102571.09;5014697;28;20104;-63
2022/03/15 04:05:46;;;;;;;20.80;11.73;;;;;;;6.13;75.44;102564.09;5013916;28;20026;-64
2022/03/15 04:08:14;;;;;;;;;;;;;;;6.20;74.64;102568.28;5015741;28;20049;-64
2022/03/15 04:10:40;;;;;;;19.33;11.52;;;;;;;6.13;75.49;102569.34;5014944;28;19971;-64
2022/03/15 04:13:06;;;;;;;21.55;12.90;;;;;;;6.13;75.38;102579.91;5014534;28;20444;-64
2022/03/15 04:15:31;;;;;;;22.65;12.63;;;;;;;6.10;75.68;102576.47;5013689;28;20507;-64
2022/03/15 04:17:56;;;;;;;19.75;11.82;;;;;;;6.10;75.28;102568.53;5014328;28;20030;-64
2022/03/15 04:20:22;;;;;;;26.48;12.48;;;;;;;6.09;75.45;102576.50;5013984;28;20029;-64
2022/03/15 04:22:47;;;;;;;19.70;12.32;;;;;;;6.10;75.59;102570.34;5014543;28;20025;-64
2022/03/15 04:25:14;;;;;;;18.27;11.10;;;;;;;6.09;75.84;102577.34;5013302;28;22445;-64
2022/03/15 04:27:39;;;;;;;19.15;11.23;;;;;;;6.09;75.88;102579.16;5014223;28;20547;-63
2022/03/15 04:30:05;;;;;;;19.75;11.10;;;;;;;6.07;75.18;102579.19;5014098;28;20113;-64
2022/03/15 04:32:31;;;;;;;20.02;11.55;;;;;;;6.09;75.36;102587.06;5012750;28;20034;-63
2022/03/15 04:34:57;;;;;;;21.17;11.07;;;;;;;6.06;75.33;102580.13;5014071;28;20064;-63
2022/03/15 04:37:23;;;;;;;17.83;11.18;;;;;;;6.07;75.37;102581.81;5013266;28;20074;-63
2022/03/15 04:39:49;;;;;;;21.33;11.38;;;;;;;6.07;75.36;102575.69;5013819;28;20033;-63
2022/03/15 04:42:14;;;;;;;19.48;10.82;;;;;;;6.08;75.97;102574.78;5014020;28;20091;-63
2022/03/15 04:44:39;;;;;;;19.05;10.07;;;;;;;6.08;75.52;102567.75;5013907;28;20503;-64
2022/03/15 04:47:05;;;;;;;22.90;10.90;;;;;;;6.08;75.63;102564.25;5013262;28;20034;-64
2022/03/15 04:49:31;;;;;;;19.33;10.90;;;;;;;6.07;75.46;102562.50;5013211;28;20045;-63
2022/03/15 04:51:57;;;;;;;17.48;10.18;;;;;;;6.05;75.67;102561.69;5013652;28;20026;-64
2022/03/15 04:54:22;;;;;;;23.17;10.73;;;;;;;6.04;75.56;102563.44;5013567;28;20388;-63
2022/03/15 04:56:47;;;;;;;16.52;11.15;;;;;;;6.05;75.50;102554.63;5013765;28;20026;-64
2022/03/15 04:59:12;;;;;;;20.98;11.13;;;;;;;6.04;75.25;102558.16;5013756;28;20026;-63
2022/03/15 05:01:38;;;;;;;20.33;11.55;;;;;;;6.06;75.14;102555.50;5013262;28;20084;-63
2022/03/15 05:04:03;;;;;;;20.55;11.13;;;;;;;6.06;75.75;102552.84;5013704;28;20034;-64
2022/03/15 05:06:29;;;;;;;18.30;11.00;;;;;;;6.05;75.46;102552.00;5013396;28;20099;-63
2022/03/15 05:08:54;;;;;;;17.17;10.50;;;;;;;6.06;75.29;102550.22;5003104;28;20473;-63
2022/03/15 05:11:20;;;;;;;19.58;11.40;;;;;;;6.03;75.05;102545.91;5007295;28;20045;-64
2022/03/15 05:13:47;;;;;;;20.65;12.18;;;;;;;6.03;75.24;102543.28;5013699;28;20053;-64
2022/03/15 05:16:17;;;;;;;23.98;11.70;;;;;;;6.03;75.24;102539.75;5012278;28;20030;-64
2022/03/15 05:18:44;;;;;;;;;;;;;;;6.10;74.48;102536.88;5013434;28;20030;-64
2022/03/15 05:21:12;;;;;;;19.38;10.48;;;;;;;6.02;75.26;102536.25;5013043;28;19920;-64
2022/03/15 05:23:38;;;;;;;22.95;11.15;;;;;;;6.02;75.53;102541.53;5012880;28;20025;-64
2022/03/15 05:26:03;;;;;;;18.27;10.40;;;;;;;6.04;75.29;102546.75;5012968;28;20048;-64
2022/03/15 05:28:28;;;;;;;18.20;10.52;;;;;;;6.04;74.96;102542.34;5013234;28;20105;-64
2022/03/15 05:30:54;;;;;;;19.48;10.23;;;;;;;6.03;75.51;102538.00;5012854;28;20033;-63
2022/03/15 05:33:19;;;;;;;19.75;11.35;;;;;;;6.02;75.49;102538.91;5002982;28;20045;-64
2022/03/15 05:35:45;;;;;;;18.65;11.10;;;;;;;6.01;75.10;102531.91;5012873;28;20030;-64
2022/03/15 05:38:10;;;;;;;16.92;10.65;;;;;;;6.00;75.48;102532.81;5012357;28;20033;-64
2022/03/15 05:40:36;;;;;;;19.38;10.50;;;;;;;5.99;75.04;102523.16;5012627;28;20030;-64
2022/03/15 05:43:02;;;;;;;20.73;10.18;;;;;;;5.99;75.26;102524.94;5012514;28;20029;-64
2022/03/15 05:45:28;;;;;;;22.10;10.95;;;;;;;5.99;75.71;102517.88;5011403;28;20041;-64
2022/03/15 05:47:54;;;;;;;19.45;10.82;;;;;;;6.00;75.80;102518.78;5012106;28;20033;-64
2022/03/15 05:50:20;;;;;;;15.25;10.05;;;;;;;6.01;75.66;102520.47;5012860;28;20066;-63
2022/03/15 05:52:46;;;;;;;15.57;10.40;;;;;;;6.01;75.65;102520.47;5012345;28;20064;-64
2022/03/15 05:55:11;;;;;;;20.10;10.95;;;;;;;6.02;75.79;102522.22;5011466;28;20044;-64
2022/03/15 05:57:38;;;;;;;15.35;10.40;;;;;;;6.00;76.28;102513.50;5012306;28;20052;-64
2022/03/15 06:00:05;;;;;;;19.60;11.15;;;;;;;5.98;76.30;102516.19;5012080;28;20034;-64
2022/03/15 06:02:30;;;;;;;17.45;10.82;;;;;;;5.98;75.98;102510.00;5011172;28;20408;-64
2022/03/15 06:04:57;;;;;;;24.92;10.88;;;;;;;5.95;76.10;102508.31;5012300;28;20113;-64
2022/03/15 06:07:23;;;;;;;16.55;10.32;;;;;;;5.96;76.31;102512.69;5011868;28;20046;-64
2022/03/15 06:09:49;;;;;;;23.10;10.90;;;;;;;5.95;76.51;102512.75;5012490;28;20514;-63
2022/03/15 06:12:14;;;;;;;20.70;10.73;;;;;;;5.93;76.37;102511.00;5012779;28;20033;-63
2022/03/15 06:14:39;;;;;;;18.17;10.95;;;;;;;5.94;76.74;102511.84;5012079;28;20026;-63
2022/03/15 06:17:05;;;;;;;21.58;10.30;;;;;;;5.92;76.72;102511.03;5012307;28;20125;-64
2022/03/15 06:19:30;;;;;;;15.98;10.95;;;;;;;5.92;76.93;102509.25;5010884;28;20120;-64
2022/03/15 06:21:55;;;;;;;17.02;11.02;;;;;;;5.90;76.83;102508.44;5010688;28;20053;-64
2022/03/15 06:24:21;;;;;;;18.85;11.50;;;;;;;5.92;76.79;102508.41;5011279;28;20029;-64
2022/03/15 06:26:46;;;;;;;18.08;10.30;;;;;;;5.94;76.95;102503.94;5012157;28;20081;-64
2022/03/15 06:29:11;;;;;;;19.88;11.68;;;;;;;5.93;76.94;102508.38;5012385;28;20048;-63
2022/03/15 06:31:37;;;;;;;19.50;10.50;;;;;;;5.93;76.90;102513.63;5012311;28;20042;-64
2022/03/15 06:34:04;;;;;;;18.67;11.10;;;;;;;5.95;77.42;102515.38;5012278;28;20026;-64
2022/03/15 06:36:30;;;;;;;20.45;10.90;;;;;;;5.93;77.65;102507.50;5012105;28;20030;-63
2022/03/15 06:38:56;;;;;;;22.48;11.10;;;;;;;5.91;77.26;102499.63;5011326;28;20045;-63
2022/03/15 06:41:21;;;;;;;15.82;11.32;;;;;;;5.91;77.51;102497.00;5010791;28;20030;-63
2022/03/15 06:43:47;;;;;;;16.00;10.45;;;;;;;5.92;77.27;102497.84;5009970;28;20018;-64
2022/03/15 06:46:14;;;;;;;20.05;11.20;;;;;;;5.92;77.38;102501.34;5009550;28;20032;-64
2022/03/15 06:48:40;;;;;;;18.35;10.88;;;;;;;5.95;77.46;102496.91;5008790;28;20029;-63
2022/03/15 06:51:06;;;;;;;20.02;10.73;;;;;;;5.93;77.29;102500.44;5009952;28;20034;-63
2022/03/15 06:53:31;;;;;;;22.02;11.35;;;;;;;5.95;77.29;102487.22;5010704;28;20037;-64
2022/03/15 06:55:57;;;;;;;16.73;11.35;;;;;;;5.97;77.27;102488.06;5011695;28;20029;-64
2022/03/15 06:58:23;;;;;;;23.67;11.77;;;;;;;5.99;76.95;102486.22;5010334;28;20030;-63
2022/03/15 07:00:48;;;;;;;18.55;11.30;;;;;;;6.00;76.81;102481.84;5010624;28;20379;-64
2022/03/15 07:03:14;;;;;;;19.35;11.10;;;;;;;6.02;76.62;102488.78;5009769;28;20080;-64
2022/03/15 07:05:40;;;;;;;19.58;11.13;;;;;;;6.04;76.48;102491.38;5009652;28;20030;-64
2022/03/15 07:08:06;;;;;;;20.67;11.05;;;;;;;6.05;76.29;102490.47;5003483;28;20032;-64
2022/03/15 07:10:32;;;;;;;16.80;10.65;;;;;;;6.06;76.57;102492.19;5010089;28;20112;-64
2022/03/15 07:12:57;;;;;;;15.70;10.15;;;;;;;6.09;76.17;102484.19;5012716;28;20025;-64
2022/03/15 07:15:23;;;;;;;14.80;10.68;;;;;;;6.13;75.88;102483.19;5010608;28;20066;-65
2022/03/15 07:17:57;;;;;;;15.60;10.32;;;;;;;6.16;75.94;102482.22;5012870;28;20444;-64
2022/03/15 07:20:24;;;;;;;19.85;10.20;;;;;;;6.18;76.05;102483.91;5012235;28;20084;-64
2022/03/15 07:22:50;;;;;;;15.93;9.68;;;;;;;6.21;75.56;102482.94;5013104;28;20022;-64
2022/03/15 07:25:16;;;;;;;16.65;10.90;;;;;;;6.24;75.65;102480.19;5012495;28;20041;-64
2022/03/15 07:27:41;;;;;;;16.85;9.88;;;;;;;6.25;75.37;102477.50;5011672;28;20116;-64
2022/03/15 07:30:07;;;;;;;17.17;10.18;;;;;;;6.28;75.45;102472.13;5011611;28;20486;-64
2022/03/15 07:32:33;;;;;;;19.45;9.98;;;;;;;6.32;75.21;102474.69;5012302;28;20061;-64
2022/03/15 07:34:58;;;;;;;13.88;9.38;;;;;;;6.33;75.26;102473.75;5009860;28;20092;-64
2022/03/15 07:37:24;;;;;;;18.17;9.63;;;;;;;6.36;75.05;102476.28;5010851;28;20368;-64
2022/03/15 07:39:49;;;;;;;18.08;9.57;;;;;;;6.38;74.88;102470.06;5011733;28;20030;-64
2022/03/15 07:42:15;;;;;;;17.08;9.32;;;;;;;6.42;74.78;102462.91;5011907;28;20441;-64
2022/03/15 07:44:44;;;;;;;18.05;9.02;;;;;;;6.44;74.64;102472.47;5010826;28;20058;-64
2022/03/15 07:47:10;;;;;;;;;;;;;;;6.52;74.24;102474.03;5012297;28;20099;-64
2022/03/15 07:49:36;;;;;;;19.25;9.20;;;;;;;6.51;74.26;102472.28;5011423;28;19925;-64
2022/03/15 07:52:02;;;;;;;13.93;8.77;;;;;;;6.54;74.09;102464.25;5005314;28;20412;-64
2022/03/15 07:54:28;;;;;;;13.90;8.35;;;;;;;6.57;73.89;102469.44;5011492;28;20480;-64
2022/03/15 07:56:53;;;;;;;18.33;8.82;;;;;;;6.60;73.69;102461.44;5012088;28;20049;-65
2022/03/15 07:59:18;;;;;;;13.10;8.52;;;;;;;6.62;73.77;102465.72;5012371;28;20041;-64
2022/03/15 08:01:44;;;;;;;16.33;9.07;;;;;;;6.64;73.62;102469.19;5011759;28;20038;-64
2022/03/15 08:04:09;;;;;;;19.60;8.48;;;;;;;6.67;73.27;102461.16;5010899;28;20127;-64
2022/03/15 08:06:35;;;;;;;13.85;8.43;;;;;;;6.69;73.40;102461.09;5011963;28;20037;-65
2022/03/15 08:09:02;;;;;;;15.65;8.70;;;;;;;6.73;73.11;102456.56;5013326;28;20160;-64
2022/03/15 08:11:27;;;;;;;14.60;7.80;;;;;;;6.75;72.98;102457.41;5012350;28;20046;-64
2022/03/15 08:13:53;;;;;;;16.48;8.10;;;;;;;6.77;72.75;102445.84;5011361;28;20025;-64
2022/03/15 08:16:19;;;;;;;15.23;8.23;;;;;;;6.78;72.80;102447.59;5010153;28;20037;-65
2022/03/15 08:18:44;;;;;;;18.23;8.05;;;;;;;6.83;72.51;102443.00;5022338;28;20030;-64
2022/03/15 08:21:10;;;;;;;16.35;8.27;;;;;;;6.88;71.87;102445.50;5011216;28;20018;-64
2022/03/15 08:23:36;;;;;;;15.75;7.72;;;;;;;6.91;71.94;102439.22;5013544;28;20042;-64
2022/03/15 08:26:01;;;;;;;14.95;7.40;;;;;;;6.95;72.01;102444.34;5014292;28;20129;-64
2022/03/15 08:28:27;;;;;;;13.15;7.15;;;;;;;6.99;71.73;102440.66;5014019;28;20117;-64
2022/03/15 08:30:54;;;;;;;18.60;7.55;;;;;;;7.04;71.49;102432.56;5014715;28;20664;-64
2022/03/15 08:33:20;;;;;;;13.95;7.05;;;;;;;7.07;71.41;102435.13;5014319;28;20030;-64
2022/03/15 08:35:45;;;;;;;18.52;7.03;;;;;;;7.13;70.83;102431.41;5013072;28;20036;-64
2022/03/15 08:38:11;;;;;;;14.80;6.78;;;;;;;7.18;71.06;102437.38;5008128;28;20022;-64
2022/03/15 08:40:37;;;;;;;16.35;6.85;;;;;;;7.23;70.52;102438.06;5014416;28;20355;-64
2022/03/15 08:43:03;;;;;;;13.73;6.20;;;;;;;7.27;70.70;102434.38;5014109;28;20030;-64
2022/03/15 08:45:28;;;;;;;16.17;6.43;;;;;;;7.31;69.92;102436.00;5014012;28;20033;-64
2022/03/15 08:47:53;;;;;;;18.55;7.43;;;;;;;7.36;70.21;102430.53;5013424;28;20033;-64
2022/03/15 08:50:19;;;;;;;19.08;6.45;;;;;;;7.39;69.94;102426.00;5011578;28;20408;-64
2022/03/15 08:52:45;;;;;;;16.67;6.03;;;;;;;7.45;69.80;102431.97;5012753;28;20041;-64
2022/03/15 08:55:10;;;;;;;12.70;6.30;;;;;;;7.48;69.33;102430.06;5012518;28;20535;-63
2022/03/15 08:57:36;;;;;;;13.52;6.10;;;;;;;7.53;69.86;102422.84;5009208;28;20026;-64
2022/03/15 09:00:06;;;;;;;18.67;6.47;;;;;;;7.57;69.38;102413.00;5009994;28;20013;-64
2022/03/15 09:02:31;;;;;;;19.67;7.05;;;;;;;7.61;69.55;102417.25;5009456;28;20396;-65
2022/03/15 09:04:56;;;;;;;12.80;5.70;;;;;;;7.67;69.34;102413.50;5009900;28;20014;-64
2022/03/15 09:07:22;;;;;;;13.35;6.60;;;;;;;7.70;69.21;102413.38;5010178;28;20021;-64
2022/03/15 09:09:47;;;;;;;17.15;6.82;;;;;;;7.75;68.61;102409.63;5010221;28;20063;-64
2022/03/15 09:12:13;;;;;;;18.33;6.60;;;;;;;7.78;68.85;102409.50;5008594;28;20453;-64
2022/03/15 09:14:38;;;;;;;16.92;6.03;;;;;;;7.82;68.43;102402.31;5009836;28;20033;-64
2022/03/15 09:17:04;;;;;;;13.43;6.35;;;;;;;7.86;68.47;102408.31;5009579;28;20110;-64
2022/03/15 09:19:30;;;;;;;11.82;6.10;;;;;;;7.92;68.50;102414.22;5008150;28;20026;-64
2022/03/15 09:21:55;;;;;;;16.25;6.15;;;;;;;7.94;67.96;102412.41;5008504;28;20017;-64
2022/03/15 09:24:20;;;;;;;18.98;6.40;;;;;;;8.00;68.36;102419.22;5009543;28;20041;-64
2022/03/15 09:26:46;;;;;;;13.43;6.57;;;;;;;8.06;68.17;102412.81;5010362;28;20155;-64
2022/03/15 09:29:12;;;;;;;12.32;6.05;;;;;;;8.11;68.23;102413.47;5009468;28;20037;-64
2022/03/15 09:31:38;;;;;;;16.67;6.60;;;;;;;8.15;67.77;102413.31;5008572;28;20038;-64
2022/03/15 09:34:03;;;;;;;14.30;6.00;;;;;;;8.21;67.87;102414.84;5009446;28;20026;-64
2022/03/15 09:36:29;;;;;;;13.80;6.30;;;;;;;8.27;67.45;102419.88;5009107;28;20033;-64
2022/03/15 09:38:56;;;;;;;17.17;6.03;;;;;;;8.31;67.05;102416.19;5009065;28;20057;-64
2022/03/15 09:41:24;;;;;;;14.27;6.50;;;;;;;8.38;67.47;102413.28;5006165;28;20032;-65
2022/03/15 09:43:53;;;;;;;17.50;6.63;;;;;;;8.42;67.23;102412.22;5008856;28;20033;-64
2022/03/15 09:46:21;;;;;;;16.77;6.50;;;;;;;8.49;67.59;102411.06;5009002;28;20025;-65
2022/03/15 09:48:51;;;;;;;12.73;6.60;;;;;;;8.57;67.65;102410.75;5008859;28;20065;-65
2022/03/15 09:51:17;;;;;;;16.13;6.50;;;;;;;8.63;68.07;102408.69;5008012;28;20025;-64
2022/03/15 09:53:44;;;;;;;11.88;6.78;;;;;;;8.68;68.22;102409.34;5024206;28;20032;-64
2022/03/15 09:56:13;;;;;;;13.40;6.45;;;;;;;8.75;68.55;102409.94;5008697;28;20034;-64
2022/03/15 09:58:39;;;;;;;14.48;6.45;;;;;;;8.81;69.49;102409.69;5005302;28;20033;-65
2022/03/15 10:01:04;;;;;;;15.30;6.65;;;;;;;8.85;69.39;102408.59;5009313;28;20080;-62
2022/03/15 10:03:30;;;;;;;13.38;6.97;;;;;;;8.93;69.35;102402.13;5009342;28;20024;-64
2022/03/15 10:05:56;;;;;;;15.00;7.00;;;;;;;8.97;69.00;102401.88;5009960;28;20056;-65
2022/03/15 10:08:21;;;;;;;12.25;6.88;;;;;;;9.02;68.04;102397.25;5011773;28;20061;-65
2022/03/15 10:10:52;;;;;;;16.92;6.65;;;;;;;9.07;68.06;102397.03;5001635;28;20049;-65
2022/03/15 10:13:18;;;;;;;17.60;7.78;;;;;;;9.12;68.71;102384.44;5005402;28;20386;-64
2022/03/15 10:15:55;;;;;;;14.60;7.25;;;;;;;9.19;69.10;102388.53;5009642;28;20357;-65
2022/03/15 10:18:20;;;;;;;13.50;6.75;;;;;;;9.26;68.31;102389.13;5010780;28;20400;-64
2022/03/15 10:20:46;;;;;;;13.13;7.10;;;;;;;9.31;67.48;102381.81;5009899;28;20022;-65
2022/03/15 10:23:12;;;;;;;18.50;7.03;;;;;;;9.36;67.03;102386.88;5009080;28;20037;-64
2022/03/15 10:25:41;;;;;;;16.38;7.20;;;;;;;9.45;68.24;102375.84;5008124;28;20484;-64
2022/03/15 10:28:08;;;;;;;13.02;6.10;;;;;;;9.52;65.60;102385.22;5008395;28;20030;-64
2022/03/15 10:30:36;;;;;;;13.00;5.82;;;;;;;9.61;64.65;102376.84;5008141;28;20029;-64
2022/03/15 10:33:02;;;;;;;11.90;5.65;;;;;;;9.67;64.24;102375.69;5008336;28;20560;-64
2022/03/15 10:35:32;;;;;;;14.60;5.57;;;;;;;9.75;64.25;102360.25;5009038;28;20034;-64
2022/03/15 10:37:58;;;;;;;12.68;5.53;;;;;;;9.80;63.74;102360.88;5008211;28;20493;-64
2022/03/15 10:40:40;;;;;;;14.20;5.75;;;;;;;9.93;64.37;102360.28;5007444;28;20289;-64
2022/03/15 10:43:32;;;;;;;9.70;5.93;;;;;;;9.95;63.88;102351.31;5007933;28;20025;-64
2022/03/15 10:45:58;;;;;;;12.27;4.95;;;;;;;10.04;63.41;102349.13;5006510;28;20480;-65
2022/03/15 10:48:27;;;;;;;10.75;5.28;;;;;;;10.11;62.74;102347.91;5009285;28;20116;-64
2022/03/15 10:51:13;;;;;;;15.00;5.65;;;;;;;10.16;63.79;102343.22;5008254;28;20030;-64
2022/03/15 10:53:47;;;;;;;12.00;5.40;;;;;;;10.23;63.11;102351.72;5009438;28;20436;-65
2022/03/15 10:56:13;;;;;;;10.40;5.22;;;;;;;10.29;62.34;102340.78;5009167;28;20061;-65
2022/03/15 10:58:48;;;;;;;11.07;5.78;;;;;;;10.35;63.26;102338.69;5008385;28;20115;-65
2022/03/15 11:01:17;;;;;;;13.50;5.32;;;;;;;10.42;63.05;102328.59;5007827;28;20108;-64
2022/03/15 11:03:54;;;;;;;12.05;5.22;;;;;;;10.46;62.54;102338.16;5009325;28;20037;-64
2022/03/15 11:06:40;;;;;;;15.27;5.00;;;;;;;10.49;62.90;102334.44;5006947;28;20057;-65
2022/03/15 11:09:24;;;;;;;11.57;5.10;;;;;;;10.53;62.67;102328.91;5009547;28;20392;-64
2022/03/15 11:12:04;;;;;;;11.15;5.63;;;;;;;10.57;62.28;102334.06;5008340;28;20030;-64
2022/03/15 11:14:36;;;;;;;15.57;5.03;;;;;;;10.60;61.99;102326.78;5009119;28;20033;-64
2022/03/15 11:17:05;;;;;;;17.00;5.18;;;;;;;10.65;62.04;102315.91;5004459;28;20041;-64